Decoded Metar for KVNW ( in ) (IATA:) | Meteo·Mobile Aviation Weather
aviador You're here:

KVNW Decoded Metar

in
Report Time2019-11-16 02:35:00
UTC Time2019-11-16 02:25:07
Flight Rules mvfr MVFR
Wind030° at 06 kt
W.Decomp.*RWY 36: 5.2 kt HW 3.0 kt RCW
RWY 09: 3.0 kt HW 5.2 kt LCW
Visibility9999 m
Phenomena:N/A
Clouds:Overcast 020 Hf
Expected CloudBase > 1,200 ft AGL from Temp-Dew spread
Ceiling2,000 ft
Temp01°C
Dew Point-2°C (81% RH)
AAT-3.4°C
QNH1029 hPa
Raw Report
KVNW 160235Z AUTO 03006KT 10SM OVC020 01/M02 A3038 RMK AO2=

Extra information for KVNW:More info

Social comments